Edmonton International Airport
CYEG : now visible

Airfield :











YOU CAN JOIN US ON...

 
LOGIN :

Register | Disclaimer

   EN    FR    IT 

 









Legend :    VFR   Marginal VFR   IFR   Intensive IFR   Very Intensive IFR
Visi :
Ceiling :
>= 8 km
>= 3000ft
5 to 8 km
1000 to 3000 ft
1500m to 5 km
500 to 1000 ft
800 to 1500m
200 to 500 ft
< 800m
< 200 ft
Symbols :   Thunderstorms  Fog  Heavy snow  Heavy precipitations  Wind > 20 kt






- Airport Elevation : 2373 ft
- IATA code : YEG


CYEG - Edmonton International

CURRENT METAR :
  • 220000Z 32011G17KT 20SM -SHSN FEW038 OVC050 M05/M12 A3030 RMK SC2SC6 CVCTV CLD EMBD SLP304

EXPIRED METARs :
  • 212300Z 30010G15KT 20SM VCSH SCT038 BKN052 M05/M11 A3028 RMK SC4SC3 OCNL -SHSN CVCTV CLD EMBD SLP299
  • 212200Z 33009G16KT 20SM -SHSN BKN040 BKN060 M05/M12 A3027 RMK SC5SC2 CVCTV CLD EMBD SLP294

TAF TAF CYEG
Valid from the 22 at 00:00 until the 23 at 00:00 UTC


212338Z 2200/2224 32010KT P6SM SCT025 BKN050
TEMPO 2200/2212 3SM -SHSN BKN020 OVC040
FM221200 30006KT P6SM SCT015 OVC040
TEMPO 2212/2218 5SM -SN BKN015 OVC030
FM221800 30008KT P6SM FEW020 BKN040 RMK NXT FCST BY 220300Z
CZEG FIR / North America



MET'MAP, your aeronautical weather chart ! - Copyright ORBIFLY December 2007 - Disclaimer

ORBIFLY MET'MAP TEAM :

Programming & Development : Alexandra Zaïnal
Concept & original design : Baudouin d'Aumeries
Assistance for programming : Marc-Olivier Méhu
Technical & hardware support : Manuel Goepfert

Contact : metmap@orbifly.com




SOURCES & CREDITS :

   NOAA       Earth
Advisory